Rio Brilhante, Brazil
Current Conditions -  °F | °C
As of 2:00 AM on Saturday 20 Dec 2014 (Local Time) from SBCG Reporting Station
Scattered Clouds Scattered Clouds  
Wind Chill: 72°   Ceiling: Unl
Heat Index: 72°   Visibility: 6mi
Dew Point: 70°   Wind: 6mph
Humidity: 94%   Direction: 40°NE
Pressure: 29.8"   Gusts: NA
Location:  21.8°S, 54.55°W
Report Text: SBCG 200500Z 04005KT 9999 FEW020 SCT100 22/21 Q1009
Loading
Personal Weather Stations






























Interactive Weather Map New forecast layout! Learn more

10-Day Weather Forecast

Advertisements
Track Severe Weather on mobile